createdAt,value
2023-03-08T00:01:50.080Z,7.28
2023-03-08T00:04:59.180Z,7.27
2023-03-08T00:08:01.838Z,7.27
2023-03-08T00:11:07.836Z,7.28
2023-03-08T00:14:11.056Z,7.27
2023-03-08T00:17:13.848Z,7.30
2023-03-08T00:20:16.751Z,7.30
2023-03-08T00:23:22.541Z,7.28
2023-03-08T00:26:26.576Z,7.28
2023-03-08T00:29:29.275Z,7.27
2023-03-08T00:32:32.029Z,7.32
2023-03-08T00:35:36.946Z,7.26
2023-03-08T00:38:39.653Z,7.27
2023-03-08T00:42:03.326Z,7.26
2023-03-08T00:45:07.052Z,7.25
2023-03-08T00:48:09.816Z,7.26
2023-03-08T00:51:14.685Z,7.26
2023-03-08T00:54:17.441Z,7.26
2023-03-08T00:57:21.481Z,7.25
2023-03-08T01:00:25.145Z,7.24
2023-03-08T01:03:27.860Z,7.25
2023-03-08T01:06:30.846Z,7.23
2023-03-08T01:09:33.511Z,7.20
2023-03-08T01:12:37.660Z,7.20
2023-03-08T01:15:40.319Z,7.18
2023-03-08T01:18:42.952Z,7.19
2023-03-08T01:21:45.652Z,7.22
2023-03-08T01:24:53.596Z,7.21
2023-03-08T01:27:57.599Z,7.17
2023-03-08T01:31:08.820Z,7.11
2023-03-08T01:34:11.503Z,7.10
2023-03-08T01:37:14.152Z,7.10
2023-03-08T01:40:17.382Z,7.11
2023-03-08T01:43:27.180Z,7.09
2023-03-08T01:46:34.174Z,7.10
2023-03-08T01:49:37.553Z,7.11
2023-03-08T01:52:46.750Z,7.07
2023-03-08T01:55:49.630Z,7.08
2023-03-08T01:58:56.586Z,7.03
2023-03-08T02:02:01.534Z,7.03
2023-03-08T02:05:04.746Z,7.03
2023-03-08T02:08:11.933Z,7.02
2023-03-08T02:11:17.874Z,7.04
2023-03-08T02:14:21.989Z,7.00
2023-03-08T02:17:25.588Z,7.01
2023-03-08T02:20:32.527Z,7.00
2023-03-08T02:23:42.650Z,6.98
2023-03-08T02:26:50.687Z,6.99
2023-03-08T02:29:53.671Z,6.98
2023-03-08T02:32:56.644Z,6.88
2023-03-08T02:35:59.489Z,7.00
2023-03-08T02:39:03.556Z,6.97
2023-03-08T02:42:07.497Z,6.96
2023-03-08T02:45:11.350Z,6.92
2023-03-08T02:48:15.296Z,6.78
2023-03-08T02:51:17.961Z,6.95
2023-03-08T02:54:24.500Z,6.89
2023-03-08T02:57:27.194Z,6.87
2023-03-08T03:00:32.005Z,6.90
2023-03-08T03:03:34.611Z,6.90
2023-03-08T03:06:39.798Z,6.91
2023-03-08T03:09:46.919Z,6.87
2023-03-08T03:12:49.584Z,6.92
2023-03-08T03:15:55.419Z,6.87
2023-03-08T03:18:58.221Z,6.85
2023-03-08T03:22:00.898Z,6.87
2023-03-08T03:25:06.409Z,6.85
2023-03-08T03:28:09.017Z,6.81
2023-03-08T03:31:15.394Z,6.82
2023-03-08T03:34:18.178Z,6.81
2023-03-08T03:37:20.836Z,6.81
2023-03-08T03:40:24.844Z,6.83
2023-03-08T03:43:30.333Z,6.80
2023-03-08T03:46:36.094Z,6.79
2023-03-08T03:49:38.713Z,6.82
2023-03-08T03:52:41.777Z,6.78
2023-03-08T03:55:45.878Z,6.77
2023-03-08T03:58:48.745Z,6.71
2023-03-08T04:01:53.226Z,6.66
2023-03-08T04:04:59.190Z,6.60
2023-03-08T04:08:01.861Z,6.46
2023-03-08T04:11:09.630Z,6.40
2023-03-08T04:14:12.429Z,6.34
2023-03-08T04:17:17.502Z,6.25
2023-03-08T04:20:20.715Z,6.14
2023-03-08T04:23:23.456Z,6.08
2023-03-08T04:26:27.835Z,6.06
2023-03-08T04:29:30.641Z,6.02
2023-03-08T04:32:33.641Z,5.92
2023-03-08T04:35:38.674Z,5.95
2023-03-08T04:38:45.563Z,5.96
2023-03-08T04:41:49.571Z,5.93
2023-03-08T04:44:52.238Z,5.95
2023-03-08T04:47:55.051Z,5.96
2023-03-08T04:50:59.210Z,5.99
2023-03-08T04:54:01.884Z,6.02
2023-03-08T04:57:06.085Z,6.04
2023-03-08T05:00:10.165Z,6.04
2023-03-08T05:03:13.824Z,6.08
2023-03-08T05:06:17.848Z,6.09
2023-03-08T05:09:20.834Z,6.12
2023-03-08T05:12:24.863Z,6.12
2023-03-08T05:15:27.676Z,6.18
2023-03-08T05:18:30.293Z,6.16
2023-03-08T05:21:35.137Z,6.17
2023-03-08T05:24:41.011Z,6.15
2023-03-08T05:27:44.939Z,6.13
2023-03-08T05:30:47.773Z,6.11
2023-03-08T05:33:52.435Z,6.12
2023-03-08T05:37:01.661Z,6.13
2023-03-08T05:40:06.720Z,6.08
2023-03-08T05:43:10.715Z,6.11
2023-03-08T05:46:15.890Z,6.12
2023-03-08T05:49:18.639Z,6.13
2023-03-08T05:52:21.255Z,6.14
2023-03-08T05:55:30.849Z,6.18
2023-03-08T05:58:34.878Z,5.94
2023-03-08T06:01:37.557Z,6.17
2023-03-08T06:04:40.799Z,6.16
2023-03-08T06:07:43.783Z,6.18
2023-03-08T06:10:46.446Z,6.06
2023-03-08T06:13:50.465Z,6.03
2023-03-08T06:16:53.128Z,5.98
2023-03-08T06:19:55.793Z,5.98
2023-03-08T06:22:58.648Z,5.94
2023-03-08T06:26:01.951Z,5.93
2023-03-08T06:29:05.988Z,5.88
2023-03-08T06:32:09.009Z,5.85
2023-03-08T06:35:11.751Z,5.84
2023-03-08T06:38:14.615Z,5.81
2023-03-08T06:41:19.875Z,5.80
2023-03-08T06:44:23.867Z,5.82
2023-03-08T06:47:28.524Z,5.72
2023-03-08T06:50:31.471Z,5.83
2023-03-08T06:53:36.072Z,5.83
2023-03-08T06:56:38.727Z,5.83
2023-03-08T06:59:42.774Z,5.80
2023-03-08T07:02:45.532Z,5.80
2023-03-08T07:05:48.265Z,5.87
2023-03-08T07:08:50.986Z,5.89
2023-03-08T07:11:53.660Z,5.95
2023-03-08T07:14:57.734Z,5.93
2023-03-08T07:18:00.371Z,5.94
2023-03-08T07:21:04.206Z,6.00
2023-03-08T07:24:07.285Z,5.96
2023-03-08T07:27:10.031Z,5.97
2023-03-08T07:30:16.555Z,6.00
2023-03-08T07:33:20.844Z,6.03
2023-03-08T07:36:23.632Z,6.06
2023-03-08T07:39:26.517Z,6.05
2023-03-08T07:42:29.168Z,6.02
2023-03-08T07:45:33.232Z,5.97
2023-03-08T07:48:35.969Z,5.96
2023-03-08T07:51:39.013Z,5.93
2023-03-08T07:54:42.033Z,5.93
2023-03-08T07:57:44.685Z,5.93
2023-03-08T08:00:48.757Z,5.87
2023-03-08T08:03:51.835Z,5.93
2023-03-08T08:06:54.492Z,5.99
2023-03-08T08:09:57.687Z,5.92
2023-03-08T08:13:00.385Z,5.80
2023-03-08T08:16:07.128Z,5.81
2023-03-08T08:19:12.384Z,5.79
2023-03-08T08:22:15.465Z,5.68
2023-03-08T08:25:18.546Z,5.63
2023-03-08T08:28:21.344Z,5.38
2023-03-08T08:31:30.995Z,5.59
2023-03-08T08:34:33.752Z,5.56
2023-03-08T08:37:36.547Z,5.62
2023-03-08T08:40:39.405Z,5.58
2023-03-08T08:43:43.198Z,5.69
2023-03-08T08:46:47.203Z,5.65
2023-03-08T08:49:50.085Z,5.63
2023-03-08T08:52:52.787Z,5.66
2023-03-08T08:55:55.546Z,5.63
2023-03-08T08:58:58.985Z,5.59
2023-03-08T09:02:03.161Z,5.40
2023-03-08T09:05:06.496Z,5.15
2023-03-08T09:08:09.590Z,5.07
2023-03-08T09:11:12.767Z,4.96
2023-03-08T09:14:16.125Z,5.01
2023-03-08T09:17:20.223Z,5.07
2023-03-08T09:20:23.768Z,5.11
2023-03-08T09:23:26.459Z,5.18
2023-03-08T09:26:30.519Z,5.15
2023-03-08T09:29:33.790Z,5.18
2023-03-08T09:32:37.897Z,5.18
2023-03-08T09:35:40.585Z,5.22
2023-03-08T09:38:43.741Z,5.17
2023-03-08T09:41:50.880Z,5.15
2023-03-08T09:45:08.306Z,5.13
2023-03-08T09:48:16.048Z,5.12
2023-03-08T09:51:20.134Z,4.88
2023-03-08T09:54:25.645Z,5.12
2023-03-08T09:57:34.221Z,5.23
2023-03-08T10:00:38.649Z,5.15
2023-03-08T10:04:02.215Z,5.18
2023-03-08T10:07:17.393Z,5.22
2023-03-08T10:10:30.176Z,5.13
2023-03-08T10:13:34.505Z,4.97
2023-03-08T10:16:41.375Z,5.11
2023-03-08T10:19:51.864Z,4.97
2023-03-08T10:22:58.542Z,5.09
2023-03-08T10:26:03.154Z,5.14
2023-03-08T10:29:05.837Z,5.05
2023-03-08T10:32:14.745Z,5.07
2023-03-08T10:35:19.834Z,5.24
2023-03-08T10:38:23.399Z,5.29
2023-03-08T10:41:26.857Z,5.39
2023-03-08T10:44:36.993Z,5.61
2023-03-08T10:47:39.897Z,5.54
2023-03-08T10:50:43.945Z,5.47
2023-03-08T10:53:54.579Z,5.58
2023-03-08T10:56:59.565Z,5.45
2023-03-08T11:00:12.246Z,5.23
2023-03-08T11:03:17.586Z,5.32
2023-03-08T11:06:28.762Z,5.03
2023-03-08T11:09:38.127Z,5.13
2023-03-08T11:12:41.404Z,5.06
2023-03-08T11:16:05.487Z,5.23
2023-03-08T11:19:17.431Z,5.12
2023-03-08T11:22:39.080Z,5.26
2023-03-08T11:25:48.560Z,4.90
2023-03-08T11:29:07.097Z,5.06
2023-03-08T11:32:29.491Z,4.97
2023-03-08T11:35:52.089Z,5.03
2023-03-08T11:39:03.981Z,4.97
2023-03-08T11:42:23.247Z,4.95
2023-03-08T11:45:41.983Z,4.76
2023-03-08T11:49:14.550Z,4.77
2023-03-08T11:52:31.292Z,4.56
2023-03-08T11:56:06.477Z,4.60
2023-03-08T11:59:17.742Z,4.61
2023-03-08T12:02:23.228Z,4.57
2023-03-08T12:05:31.497Z,4.62
2023-03-08T12:08:39.427Z,4.60
2023-03-08T12:11:47.283Z,4.60
2023-03-08T12:14:56.428Z,4.51
2023-03-08T12:18:19.599Z,4.36
2023-03-08T12:21:37.119Z,4.55
2023-03-08T12:24:49.622Z,4.70
2023-03-08T12:28:02.153Z,4.54
2023-03-08T12:31:27.894Z,4.60
2023-03-08T12:34:40.981Z,4.48
2023-03-08T12:37:43.725Z,4.52
2023-03-08T12:40:48.615Z,4.40
2023-03-08T12:44:02.882Z,4.42
2023-03-08T12:47:20.489Z,4.62
2023-03-08T12:50:25.962Z,4.67
2023-03-08T12:53:57.999Z,4.69
2023-03-08T12:57:04.046Z,4.74
2023-03-08T13:00:31.029Z,4.56
2023-03-08T13:03:41.144Z,4.53
2023-03-08T13:07:21.229Z,4.95
2023-03-08T13:10:29.953Z,4.88
2023-03-08T13:13:52.279Z,4.85
2023-03-08T13:16:59.063Z,4.88
2023-03-08T13:20:12.453Z,4.82
2023-03-08T13:23:37.617Z,5.14
2023-03-08T13:27:21.681Z,5.24
2023-03-08T13:30:26.744Z,5.17
2023-03-08T13:33:34.481Z,4.90
2023-03-08T13:36:38.937Z,5.22
2023-03-08T13:39:41.748Z,5.18
2023-03-08T13:42:54.347Z,5.21
2023-03-08T13:46:02.077Z,5.59
2023-03-08T13:49:14.841Z,5.50
2023-03-08T13:52:20.273Z,5.76
2023-03-08T13:55:30.961Z,5.82
2023-03-08T13:58:36.398Z,5.99
2023-03-08T14:01:48.356Z,6.20
2023-03-08T14:04:55.618Z,6.30
2023-03-08T14:08:04.101Z,6.66
2023-03-08T14:11:18.795Z,6.83
2023-03-08T14:14:27.648Z,7.14
2023-03-08T14:17:33.552Z,7.39
2023-03-08T14:20:38.049Z,7.51
2023-03-08T14:23:44.116Z,7.65
2023-03-08T14:27:00.294Z,7.79
2023-03-08T14:30:11.426Z,7.93
2023-03-08T14:33:28.320Z,8.02
2023-03-08T14:36:49.447Z,8.16
2023-03-08T14:39:58.333Z,8.24
2023-03-08T14:43:04.652Z,8.34
2023-03-08T14:46:16.851Z,8.47
2023-03-08T14:49:22.508Z,8.59
2023-03-08T14:52:28.803Z,8.70
2023-03-08T14:55:33.152Z,8.81
2023-03-08T14:58:39.208Z,8.93
2023-03-08T15:01:49.185Z,8.99
2023-03-08T15:04:51.886Z,9.06
2023-03-08T15:07:56.977Z,9.07
2023-03-08T15:10:59.684Z,9.08
2023-03-08T15:14:02.793Z,9.08
2023-03-08T15:17:05.535Z,9.06
2023-03-08T15:20:10.548Z,9.04
2023-03-08T15:23:18.453Z,9.04
2023-03-08T15:26:25.248Z,9.04
2023-03-08T15:29:30.120Z,8.98
2023-03-08T15:32:33.728Z,9.10
2023-03-08T15:35:36.602Z,9.09
2023-03-08T15:38:40.690Z,9.14
2023-03-08T15:41:43.557Z,9.15
2023-03-08T15:44:46.438Z,9.19
2023-03-08T15:47:57.367Z,9.20
2023-03-08T15:51:00.472Z,9.24
2023-03-08T15:54:06.534Z,9.26
2023-03-08T15:57:10.686Z,9.28
2023-03-08T16:00:17.330Z,9.31
2023-03-08T16:03:25.830Z,9.34
2023-03-08T16:06:34.217Z,9.38
2023-03-08T16:09:38.224Z,9.40
2023-03-08T16:12:41.639Z,9.45
2023-03-08T16:15:47.045Z,9.48
2023-03-08T16:19:03.688Z,9.49
2023-03-08T16:22:06.691Z,9.53
2023-03-08T16:25:11.571Z,9.56
2023-03-08T16:28:14.194Z,9.61
2023-03-08T16:31:21.414Z,9.61
2023-03-08T16:34:24.104Z,9.62
2023-03-08T16:37:27.747Z,9.64
2023-03-08T16:40:46.655Z,9.63
2023-03-08T16:43:49.601Z,9.65
2023-03-08T16:46:52.900Z,9.64
2023-03-08T16:49:55.532Z,9.63
2023-03-08T16:52:59.528Z,9.65
2023-03-08T16:56:04.586Z,9.67
2023-03-08T16:59:08.074Z,9.68
2023-03-08T17:02:14.828Z,9.68
2023-03-08T17:05:17.610Z,9.72
2023-03-08T17:08:20.278Z,9.76
2023-03-08T17:11:28.395Z,9.76
2023-03-08T17:14:34.797Z,9.75
2023-03-08T17:17:39.426Z,9.81
2023-03-08T17:20:45.173Z,9.83
2023-03-08T17:23:50.982Z,9.82
2023-03-08T17:26:55.443Z,9.83
2023-03-08T17:30:00.945Z,9.82
2023-03-08T17:33:12.855Z,9.79
2023-03-08T17:36:16.973Z,9.79
2023-03-08T17:39:23.115Z,9.79
2023-03-08T17:42:28.066Z,9.81
2023-03-08T17:45:33.964Z,9.79
2023-03-08T17:48:36.679Z,9.78
2023-03-08T17:51:43.020Z,9.75
2023-03-08T17:54:45.908Z,9.74
2023-03-08T17:57:50.276Z,9.73
2023-03-08T18:00:53.014Z,9.74
2023-03-08T18:03:59.322Z,9.74
2023-03-08T18:07:02.101Z,9.71
2023-03-08T18:10:06.406Z,9.73
2023-03-08T18:13:10.737Z,9.75
2023-03-08T18:16:13.716Z,9.69
2023-03-08T18:19:16.793Z,9.69
2023-03-08T18:22:19.708Z,9.71
2023-03-08T18:25:23.149Z,9.69
2023-03-08T18:28:27.870Z,9.67
2023-03-08T18:31:32.371Z,9.68
2023-03-08T18:34:36.459Z,9.65
2023-03-08T18:37:39.306Z,9.66
2023-03-08T18:40:43.485Z,9.64
2023-03-08T18:43:47.708Z,9.65
2023-03-08T18:46:51.308Z,9.63
2023-03-08T18:49:54.231Z,9.61
2023-03-08T18:52:59.902Z,9.60
2023-03-08T18:56:05.485Z,9.60
2023-03-08T18:59:09.858Z,9.60
2023-03-08T19:02:13.600Z,9.60
2023-03-08T19:05:17.621Z,9.58
2023-03-08T19:08:23.045Z,9.55
2023-03-08T19:11:27.560Z,9.53
2023-03-08T19:14:33.005Z,9.50
2023-03-08T19:17:36.274Z,9.51
2023-03-08T19:20:41.064Z,9.48
2023-03-08T19:23:44.249Z,9.48
2023-03-08T19:26:50.380Z,9.46
2023-03-08T19:29:55.339Z,9.49
2023-03-08T19:32:58.558Z,9.45
2023-03-08T19:36:02.523Z,9.26
2023-03-08T19:39:07.817Z,9.44
2023-03-08T19:42:14.442Z,9.41
2023-03-08T19:45:19.226Z,9.40
2023-03-08T19:48:21.952Z,9.40
2023-03-08T19:51:24.612Z,9.38
2023-03-08T19:54:28.977Z,9.38
2023-03-08T19:57:33.946Z,9.39
2023-03-08T20:00:37.909Z,9.39
2023-03-08T20:03:40.706Z,9.37
2023-03-08T20:06:50.863Z,9.41
2023-03-08T20:09:54.557Z,9.28
2023-03-08T20:12:57.574Z,9.25
2023-03-08T20:16:02.174Z,9.21
2023-03-08T20:19:04.882Z,9.19
2023-03-08T20:22:07.624Z,9.15
2023-03-08T20:25:12.448Z,9.12
2023-03-08T20:28:15.083Z,9.10
2023-03-08T20:31:23.635Z,9.07
2023-03-08T20:34:28.225Z,9.06
2023-03-08T20:37:31.812Z,9.09
2023-03-08T20:40:34.549Z,9.09
2023-03-08T20:43:39.220Z,9.10
2023-03-08T20:46:50.394Z,9.13
2023-03-08T20:49:53.421Z,9.04
2023-03-08T20:52:56.135Z,9.00
2023-03-08T20:55:59.172Z,8.99
2023-03-08T20:59:02.446Z,8.99
2023-03-08T21:02:06.505Z,9.02
2023-03-08T21:05:10.054Z,9.03
2023-03-08T21:08:12.816Z,9.04
2023-03-08T21:11:15.686Z,9.07
2023-03-08T21:14:18.356Z,9.10
2023-03-08T21:17:25.958Z,9.11
2023-03-08T21:20:28.893Z,9.13
2023-03-08T21:23:39.685Z,9.16
2023-03-08T21:26:42.884Z,9.19
2023-03-08T21:29:45.777Z,9.22
2023-03-08T21:32:50.387Z,9.26
2023-03-08T21:35:53.120Z,9.29
2023-03-08T21:38:58.139Z,9.28
2023-03-08T21:42:00.891Z,9.30
2023-03-08T21:45:03.762Z,9.31
2023-03-08T21:48:11.341Z,9.31
2023-03-08T21:51:16.911Z,9.31
2023-03-08T21:54:20.091Z,9.32
2023-03-08T21:57:22.812Z,9.34
2023-03-08T22:00:25.911Z,9.41
2023-03-08T22:03:31.290Z,9.36
2023-03-08T22:06:34.923Z,9.36
2023-03-08T22:09:39.981Z,9.36
2023-03-08T22:12:43.417Z,9.39
2023-03-08T22:15:51.363Z,9.41
2023-03-08T22:18:57.485Z,9.45
2023-03-08T22:22:05.429Z,9.43
2023-03-08T22:25:09.031Z,9.42
2023-03-08T22:28:12.027Z,9.43
2023-03-08T22:31:19.561Z,9.40
2023-03-08T22:34:26.685Z,9.45
2023-03-08T22:37:29.343Z,9.48
2023-03-08T22:40:32.314Z,9.38
2023-03-08T22:43:38.984Z,9.33
2023-03-08T22:46:41.678Z,9.34
2023-03-08T22:49:52.100Z,9.34
2023-03-08T22:52:54.833Z,9.38
2023-03-08T22:55:58.516Z,9.33
2023-03-08T22:59:02.052Z,9.33
2023-03-08T23:02:06.179Z,9.30
2023-03-08T23:05:13.113Z,9.32
2023-03-08T23:08:23.231Z,9.30
2023-03-08T23:11:27.256Z,9.40
2023-03-08T23:14:30.067Z,9.29
2023-03-08T23:17:36.540Z,9.39
2023-03-08T23:20:42.673Z,9.32
2023-03-08T23:23:45.611Z,9.24
2023-03-08T23:26:48.966Z,9.07
2023-03-08T23:29:54.773Z,9.06
2023-03-08T23:32:59.157Z,9.10
2023-03-08T23:36:07.393Z,9.04
2023-03-08T23:39:11.486Z,9.14
2023-03-08T23:42:30.777Z,9.19
2023-03-08T23:45:33.610Z,9.08
2023-03-08T23:48:43.125Z,9.02
2023-03-08T23:51:49.741Z,9.00
2023-03-08T23:54:52.696Z,9.00
2023-03-08T23:57:56.484Z,8.94
